createdAt,value
2023-02-04T00:00:55.338Z,102790.41
2023-02-04T00:03:41.196Z,102807.16
2023-02-04T00:06:27.151Z,102820.66
2023-02-04T00:09:16.297Z,102830.44
2023-02-04T00:12:02.420Z,102849.91
2023-02-04T00:14:48.066Z,102856.38
2023-02-04T00:17:33.881Z,102868.19
2023-02-04T00:20:19.795Z,102874.59
2023-02-04T00:23:07.262Z,102880.22
2023-02-04T00:25:54.725Z,102893.50
2023-02-04T00:28:40.597Z,102895.34
2023-02-04T00:31:26.745Z,102908.66
2023-02-04T00:34:13.247Z,102919.25
2023-02-04T00:36:59.113Z,102926.53
2023-02-04T00:39:45.324Z,102932.78
2023-02-04T00:42:32.438Z,102927.69
2023-02-04T00:45:18.280Z,102932.09
2023-02-04T00:48:03.991Z,102947.13
2023-02-04T00:50:49.827Z,102951.75
2023-02-04T00:53:35.647Z,102942.38
2023-02-04T00:56:21.429Z,102965.19
2023-02-04T00:59:08.993Z,102958.38
2023-02-04T01:01:55.062Z,102965.47
2023-02-04T01:04:40.842Z,102979.59
2023-02-04T01:07:26.687Z,102981.47
2023-02-04T01:10:12.813Z,102992.94
2023-02-04T01:12:58.611Z,103008.78
2023-02-04T01:15:47.843Z,103020.25
2023-02-04T01:18:34.374Z,103025.66
2023-02-04T01:21:20.204Z,103022.34
2023-02-04T01:24:06.011Z,103044.22
2023-02-04T01:27:11.851Z,103047.75
2023-02-04T01:29:57.731Z,103066.16
2023-02-04T01:32:44.802Z,103085.44
2023-02-04T01:35:30.459Z,103088.19
2023-02-04T01:38:16.329Z,103107.56
2023-02-04T01:41:02.624Z,103126.03
2023-02-04T01:43:48.605Z,103137.44
2023-02-04T01:46:37.286Z,103150.72
2023-02-04T01:49:24.304Z,103163.06
2023-02-04T01:52:10.298Z,103170.88
2023-02-04T01:54:56.101Z,103188.50
2023-02-04T01:57:42.428Z,103201.63
2023-02-04T02:00:29.657Z,103212.25
2023-02-04T02:03:16.044Z,103230.66
2023-02-04T02:06:03.076Z,103237.69
2023-02-04T02:08:48.840Z,103247.34
2023-02-04T02:11:35.092Z,103260.47
2023-02-04T02:14:22.432Z,103279.69
2023-02-04T02:17:09.756Z,103292.78
2023-02-04T02:19:55.792Z,103309.38
2023-02-04T02:22:44.990Z,103321.63
2023-02-04T02:25:32.201Z,103347.84
2023-02-04T02:28:18.901Z,103352.19
2023-02-04T02:31:05.017Z,103365.25
2023-02-04T02:33:51.445Z,103377.44
2023-02-04T02:36:37.825Z,103384.38
2023-02-04T02:39:23.577Z,103407.13
2023-02-04T02:42:11.439Z,103416.72
2023-02-04T02:44:57.592Z,103426.28
2023-02-04T02:47:43.407Z,103428.91
2023-02-04T02:50:30.276Z,103441.13
2023-02-04T02:53:17.594Z,103452.44
2023-02-04T02:56:05.367Z,103453.28
2023-02-04T02:58:53.861Z,103464.69
2023-02-04T03:01:39.677Z,103475.13
2023-02-04T03:04:26.613Z,103477.72
2023-02-04T03:07:12.773Z,103476.94
2023-02-04T03:09:58.967Z,103476.94
2023-02-04T03:12:44.902Z,103482.06
2023-02-04T03:15:32.518Z,103480.38
2023-02-04T03:18:20.456Z,103464.66
2023-02-04T03:21:06.643Z,103461.25
2023-02-04T03:23:56.352Z,103443.66
2023-02-04T03:26:42.679Z,103445.38
2023-02-04T03:29:29.892Z,103434.13
2023-02-04T03:32:17.917Z,103440.22
2023-02-04T03:35:03.923Z,103423.53
2023-02-04T03:37:49.710Z,103401.75
2023-02-04T03:40:35.560Z,103384.16
2023-02-04T03:43:21.332Z,103377.09
2023-02-04T03:46:07.388Z,103368.28
2023-02-04T03:48:54.463Z,103347.47
2023-02-04T03:51:40.197Z,103342.97
2023-02-04T03:54:26.065Z,103340.56
2023-02-04T03:57:11.830Z,103338.03
2023-02-04T03:59:57.719Z,103332.13
2023-02-04T04:02:43.581Z,103332.34
2023-02-04T04:05:30.687Z,103324.50
2023-02-04T04:08:16.589Z,103308.28
2023-02-04T04:11:02.306Z,103303.09
2023-02-04T04:13:48.046Z,103298.25
2023-02-04T04:16:33.845Z,103294.69
2023-02-04T04:19:19.500Z,103303.47
2023-02-04T04:22:06.635Z,103325.41
2023-02-04T04:24:52.545Z,103337.78
2023-02-04T04:27:38.373Z,103344.06
2023-02-04T04:30:24.093Z,103352.09
2023-02-04T04:33:10.081Z,103360.00
2023-02-04T04:35:56.500Z,103378.38
2023-02-04T04:38:43.746Z,103384.50
2023-02-04T04:41:29.469Z,103397.69
2023-02-04T04:44:15.361Z,103409.28
2023-02-04T04:47:01.353Z,103415.34
2023-02-04T04:49:47.211Z,103424.97
2023-02-04T04:52:33.113Z,103437.28
2023-02-04T04:55:20.167Z,103449.59
2023-02-04T04:58:06.014Z,103451.44
2023-02-04T05:00:51.917Z,103466.44
2023-02-04T05:03:38.034Z,103478.72
2023-02-04T05:06:25.335Z,103492.75
2023-02-04T05:09:11.786Z,103494.59
2023-02-04T05:11:59.077Z,103503.50
2023-02-04T05:14:45.547Z,103505.31
2023-02-04T05:17:31.478Z,103522.94
2023-02-04T05:20:17.502Z,103526.53
2023-02-04T05:23:05.393Z,103529.28
2023-02-04T05:25:51.635Z,103529.41
2023-02-04T05:28:38.706Z,103544.31
2023-02-04T05:31:24.641Z,103548.72
2023-02-04T05:34:10.458Z,103554.00
2023-02-04T05:36:56.137Z,103561.09
2023-02-04T05:39:42.043Z,103573.41
2023-02-04T05:42:27.858Z,103583.88
2023-02-04T05:45:16.056Z,103595.34
2023-02-04T05:48:02.077Z,103603.31
2023-02-04T05:50:47.789Z,103613.81
2023-02-04T05:53:33.562Z,103618.28
2023-02-04T05:56:19.417Z,103631.53
2023-02-04T05:59:05.461Z,103629.81
2023-02-04T06:01:52.462Z,103635.13
2023-02-04T06:04:42.570Z,103636.94
2023-02-04T06:07:29.801Z,103639.59
2023-02-04T06:10:15.714Z,103642.25
2023-02-04T06:13:01.504Z,103654.53
2023-02-04T06:15:47.225Z,103666.78
2023-02-04T06:18:36.623Z,103664.22
2023-02-04T06:21:22.607Z,103669.47
2023-02-04T06:24:08.458Z,103687.84
2023-02-04T06:26:54.262Z,103701.84
2023-02-04T06:29:39.999Z,103704.47
2023-02-04T06:32:25.846Z,103714.09
2023-02-04T06:35:13.103Z,103708.00
2023-02-04T06:37:59.123Z,103713.25
2023-02-04T06:40:44.817Z,103718.50
2023-02-04T06:43:30.805Z,103727.22
2023-02-04T06:46:16.956Z,103732.47
2023-02-04T06:49:02.916Z,103750.78
2023-02-04T06:51:50.485Z,103763.00
2023-02-04T06:54:36.295Z,103783.94
2023-02-04T06:57:22.133Z,103784.81
2023-02-04T07:00:08.872Z,103797.91
2023-02-04T07:02:56.673Z,103793.56
2023-02-04T07:05:42.836Z,103797.06
2023-02-04T07:08:29.980Z,103813.66
2023-02-04T07:11:15.889Z,103822.38
2023-02-04T07:14:01.881Z,103820.63
2023-02-04T07:16:47.717Z,103832.84
2023-02-04T07:19:33.765Z,103846.78
2023-02-04T07:22:19.892Z,103856.38
2023-02-04T07:25:07.426Z,103864.22
2023-02-04T07:27:53.165Z,103869.47
2023-02-04T07:30:39.235Z,103876.44
2023-02-04T07:33:25.659Z,103886.88
2023-02-04T07:36:11.410Z,103895.59
2023-02-04T07:38:57.273Z,103883.41
2023-02-04T07:41:44.406Z,103893.00
2023-02-04T07:44:32.138Z,103897.34
2023-02-04T07:47:17.936Z,103914.78
2023-02-04T07:50:03.738Z,103927.00
2023-02-04T07:52:49.471Z,103947.03
2023-02-04T07:55:35.398Z,103952.28
2023-02-04T07:58:22.750Z,103959.25
2023-02-04T08:01:08.990Z,103965.38
2023-02-04T08:03:55.362Z,103968.84
2023-02-04T08:10:54.615Z,103988.03
2023-02-04T08:13:41.737Z,103988.03
2023-02-04T08:16:28.175Z,103987.16
2023-02-04T08:19:18.740Z,103985.44
2023-02-04T08:22:04.709Z,103991.53
2023-02-04T08:24:50.510Z,103991.53
2023-02-04T08:27:36.349Z,103996.75
2023-02-04T08:30:23.847Z,103997.59
2023-02-04T08:33:09.590Z,104011.59
2023-02-04T08:35:55.325Z,104017.66
2023-02-04T08:38:41.450Z,104020.28
2023-02-04T08:41:27.512Z,104022.00
2023-02-04T08:44:13.295Z,104033.31
2023-02-04T08:47:00.364Z,104040.28
2023-02-04T08:49:46.273Z,104047.28
2023-02-04T08:52:32.229Z,104045.53
2023-02-04T08:55:18.008Z,104062.94
2023-02-04T08:58:03.873Z,104064.66
2023-02-04T09:00:49.672Z,104082.09
2023-02-04T09:03:36.713Z,104089.00
2023-02-04T09:06:22.494Z,104109.91
2023-02-04T09:09:08.281Z,104115.97
2023-02-04T09:11:54.192Z,104123.78
2023-02-04T09:14:40.502Z,104125.47
2023-02-04T09:17:26.186Z,104143.72
2023-02-04T09:20:13.695Z,104162.84
2023-02-04T09:22:59.590Z,104167.13
2023-02-04T09:25:45.834Z,104170.53
2023-02-04T09:28:32.098Z,104171.25
2023-02-04T09:31:18.838Z,104171.97
2023-02-04T09:34:05.047Z,104164.88
2023-02-04T09:36:52.232Z,104156.03
2023-02-04T09:39:37.936Z,104146.41
2023-02-04T09:42:24.346Z,104134.03
2023-02-04T09:45:12.283Z,104129.44
2023-02-04T09:47:58.835Z,104105.69
2023-02-04T09:50:45.172Z,104086.19
2023-02-04T09:53:32.720Z,104059.75
2023-02-04T09:56:19.253Z,104038.44
2023-02-04T09:59:05.387Z,104012.69
2023-02-04T10:01:53.430Z,104000.13
2023-02-04T10:04:39.339Z,103969.97
2023-02-04T10:07:26.694Z,103939.06
2023-02-04T10:10:16.101Z,103889.50
2023-02-04T10:13:03.759Z,103835.00
2023-02-04T10:15:49.690Z,103779.56
2023-02-04T10:18:36.010Z,103723.19
2023-02-04T10:21:22.430Z,103650.38
2023-02-04T10:24:11.554Z,103553.84
2023-02-04T10:27:07.493Z,103457.28
2023-02-04T10:29:58.130Z,103379.97
2023-02-04T10:32:45.295Z,103319.28
2023-02-04T10:35:31.012Z,103279.13
2023-02-04T10:38:16.878Z,103228.97
2023-02-04T10:41:03.041Z,103192.47
2023-02-04T10:43:48.914Z,103167.28
2023-02-04T10:46:35.971Z,103154.72
2023-02-04T10:49:22.503Z,103136.69
2023-02-04T10:52:15.251Z,103122.28
2023-02-04T10:55:01.020Z,103111.41
2023-02-04T10:57:47.965Z,103106.78
2023-02-04T11:00:34.171Z,103098.16
2023-02-04T11:03:22.630Z,103096.00
2023-02-04T11:06:11.223Z,103081.31
2023-02-04T11:08:57.157Z,103080.25
2023-02-04T11:11:46.217Z,103082.53
2023-02-04T11:14:32.495Z,103080.56
2023-02-04T11:17:20.635Z,103090.84
2023-02-04T11:20:17.952Z,103088.47
2023-02-04T11:23:15.056Z,103084.25
2023-02-04T11:26:13.153Z,103085.69
2023-02-04T11:29:19.512Z,103076.75
2023-02-04T11:32:06.304Z,103073.91
2023-02-04T11:34:53.411Z,103077.94
2023-02-04T11:37:41.386Z,103068.47
2023-02-04T11:40:28.917Z,103079.13
2023-02-04T11:43:15.925Z,103074.06
2023-02-04T11:46:02.396Z,103081.97
2023-02-04T11:48:48.188Z,103077.47
2023-02-04T11:51:34.821Z,103074.06
2023-02-04T11:54:23.499Z,103072.75
2023-02-04T11:57:11.610Z,103070.41
2023-02-04T11:59:57.556Z,103069.69
2023-02-04T12:02:45.152Z,103065.63
2023-02-04T12:05:36.444Z,103076.50
2023-02-04T12:08:26.580Z,103082.25
2023-02-04T12:11:25.795Z,103078.81
2023-02-04T12:14:17.220Z,103066.78
2023-02-04T12:17:13.381Z,103080.34
2023-02-04T12:19:59.051Z,103085.19
2023-02-04T12:22:44.847Z,103084.34
2023-02-04T12:25:31.253Z,103074.13
2023-02-04T12:28:19.192Z,103071.47
2023-02-04T12:31:05.584Z,103077.41
2023-02-04T12:33:54.078Z,103082.19
2023-02-04T12:36:39.914Z,103077.25
2023-02-04T12:39:25.802Z,103071.94
2023-02-04T12:42:11.368Z,103071.94
2023-02-04T12:44:58.605Z,103069.81
2023-02-04T12:47:44.798Z,103076.88
2023-02-04T12:50:30.522Z,103070.81
2023-02-04T12:53:16.377Z,103082.28
2023-02-04T12:56:02.588Z,103079.75
2023-02-04T12:58:48.673Z,103085.97
2023-02-04T13:01:35.826Z,103071.13
2023-02-04T13:04:21.655Z,103082.66
2023-02-04T13:07:07.981Z,103076.88
2023-02-04T13:09:53.947Z,103090.09
2023-02-04T13:12:39.729Z,103092.63
2023-02-04T13:15:25.827Z,103074.06
2023-02-04T13:18:12.893Z,103083.88
2023-02-04T13:20:58.667Z,103092.94
2023-02-04T13:23:44.511Z,103101.34
2023-02-04T13:26:30.439Z,103114.75
2023-02-04T13:29:16.206Z,103115.03
2023-02-04T13:32:02.692Z,103111.69
2023-02-04T13:34:50.095Z,103097.81
2023-02-04T13:37:35.881Z,103099.88
2023-02-04T13:40:21.976Z,103087.09
2023-02-04T13:43:07.725Z,103092.38
2023-02-04T13:45:53.480Z,103093.47
2023-02-04T13:48:39.380Z,103098.88
2023-02-04T13:51:26.879Z,103095.13
2023-02-04T13:54:12.686Z,103102.28
2023-02-04T13:56:58.504Z,103094.97
2023-02-04T13:59:44.255Z,103085.81
2023-02-04T14:02:30.212Z,103088.22
2023-02-04T14:05:16.578Z,103093.88
2023-02-04T14:08:03.992Z,103094.94
2023-02-04T14:10:50.009Z,103082.25
2023-02-04T14:13:35.710Z,103073.41
2023-02-04T14:16:22.275Z,103076.50
2023-02-04T14:19:09.250Z,103079.97
2023-02-04T14:21:54.910Z,103074.41
2023-02-04T14:24:42.666Z,103083.16
2023-02-04T14:27:28.990Z,103084.88
2023-02-04T14:30:16.851Z,103085.53
2023-02-04T14:33:02.750Z,103081.56
2023-02-04T14:35:48.979Z,103087.09
2023-02-04T14:38:34.729Z,103097.88
2023-02-04T14:41:21.829Z,103092.38
2023-02-04T14:44:07.673Z,103095.94
2023-02-04T14:46:53.932Z,103108.69
2023-02-04T14:49:39.892Z,103100.69
2023-02-04T14:52:25.667Z,103103.59
2023-02-04T14:55:12.753Z,103105.50
2023-02-04T14:58:00.103Z,103102.44
2023-02-04T15:00:45.921Z,103099.25
2023-02-04T15:03:31.650Z,103101.97
2023-02-04T15:06:17.477Z,103096.09
2023-02-04T15:09:03.166Z,103105.31
2023-02-04T15:11:48.969Z,103102.09
2023-02-04T15:14:36.122Z,103104.88
2023-02-04T15:17:21.942Z,103097.13
2023-02-04T15:20:09.022Z,103099.09
2023-02-04T15:22:56.376Z,103104.69
2023-02-04T15:25:42.278Z,103104.81
2023-02-04T15:28:29.710Z,103104.34
2023-02-04T15:31:17.109Z,103111.75
2023-02-04T15:34:04.759Z,103101.59
2023-02-04T15:36:51.982Z,103099.88
2023-02-04T15:39:37.933Z,103107.91
2023-02-04T15:42:23.710Z,103113.38
2023-02-04T15:45:09.724Z,103115.22
2023-02-04T15:47:56.950Z,103118.16
2023-02-04T15:50:43.034Z,103124.47
2023-02-04T15:53:28.893Z,103131.56
2023-02-04T15:56:14.680Z,103137.94
2023-02-04T15:59:02.392Z,103146.03
2023-02-04T16:01:48.409Z,103155.16
2023-02-04T16:04:35.487Z,103164.06
2023-02-04T16:07:21.381Z,103164.31
2023-02-04T16:10:07.825Z,103178.44
2023-02-04T16:12:56.684Z,103183.19
2023-02-04T16:15:42.502Z,103193.63
2023-02-04T16:18:28.213Z,103196.03
2023-02-04T16:21:15.361Z,103200.03
2023-02-04T16:24:01.048Z,103202.06
2023-02-04T16:26:47.019Z,103207.66
2023-02-04T16:29:32.931Z,103219.00
2023-02-04T16:32:18.776Z,103223.72
2023-02-04T16:35:05.079Z,103229.75
2023-02-04T16:37:52.319Z,103229.75
2023-02-04T16:40:38.041Z,103231.56
2023-02-04T16:43:23.950Z,103242.13
2023-02-04T16:46:09.820Z,103242.41
2023-02-04T16:48:55.862Z,103259.13
2023-02-04T16:51:41.657Z,103267.28
2023-02-04T16:54:28.904Z,103269.81
2023-02-04T16:57:15.190Z,103290.88
2023-02-04T17:00:01.199Z,103299.75
2023-02-04T17:02:46.977Z,103314.69
2023-02-04T17:05:33.456Z,103338.38
2023-02-04T17:08:19.561Z,103353.44
2023-02-04T17:11:24.503Z,103369.28
2023-02-04T17:14:12.026Z,103381.72
2023-02-04T17:16:57.894Z,103385.28
2023-02-04T17:19:43.598Z,103398.63
2023-02-04T17:22:29.472Z,103408.44
2023-02-04T17:25:15.349Z,103412.75
2023-02-04T17:28:02.545Z,103427.03
2023-02-04T17:30:48.889Z,103433.97
2023-02-04T17:33:34.736Z,103441.91
2023-02-04T17:36:20.865Z,103454.28
2023-02-04T17:39:07.479Z,103461.34
2023-02-04T17:41:53.522Z,103465.09
2023-02-04T17:44:40.621Z,103467.72
2023-02-04T17:47:26.505Z,103473.97
2023-02-04T17:50:12.806Z,103479.22
2023-02-04T17:52:58.720Z,103497.63
2023-02-04T17:55:44.636Z,103504.75
2023-02-04T17:58:30.859Z,103506.53
2023-02-04T18:01:21.689Z,103520.66
2023-02-04T18:04:10.223Z,103521.56
2023-02-04T18:06:56.267Z,103524.41
2023-02-04T18:09:42.084Z,103533.22
2023-02-04T18:12:28.200Z,103539.34
2023-02-04T18:15:22.057Z,103546.44
2023-02-04T18:18:13.540Z,103557.88
2023-02-04T18:21:00.154Z,103570.22
2023-02-04T18:23:46.330Z,103565.13
2023-02-04T18:26:32.558Z,103573.06
2023-02-04T18:29:31.040Z,103586.28
2023-02-04T18:32:17.775Z,103589.91
2023-02-04T18:35:15.443Z,103601.31
2023-02-04T18:38:01.603Z,103607.53
2023-02-04T18:40:48.239Z,103606.78
2023-02-04T18:43:37.416Z,103623.44
2023-02-04T18:46:23.785Z,103634.84
2023-02-04T18:49:17.469Z,103652.38
2023-02-04T18:52:07.699Z,103672.56
2023-02-04T18:54:54.535Z,103683.94
2023-02-04T18:57:40.725Z,103697.06
2023-02-04T19:00:27.812Z,103705.84
2023-02-04T19:03:20.061Z,103732.91
2023-02-04T19:06:09.886Z,103750.41
2023-02-04T19:08:58.394Z,103760.88
2023-02-04T19:11:44.743Z,103773.09
2023-02-04T19:14:35.108Z,103789.72
2023-02-04T19:17:22.489Z,103816.78
2023-02-04T19:20:09.374Z,103829.00
2023-02-04T19:22:56.842Z,103843.88
2023-02-04T19:25:46.543Z,103867.44
2023-02-04T19:28:33.982Z,103875.31
2023-02-04T19:31:20.029Z,103884.91
2023-02-04T19:34:17.577Z,103913.69
2023-02-04T19:37:03.316Z,103933.75
2023-02-04T19:39:49.288Z,103948.56
2023-02-04T19:42:36.856Z,103973.00
2023-02-04T19:45:23.750Z,103979.97
2023-02-04T19:48:14.985Z,103984.34
2023-02-04T19:51:01.542Z,104009.63
2023-02-04T19:53:51.502Z,104024.44
2023-02-04T19:56:38.437Z,104030.56
2023-02-04T19:59:26.912Z,104040.16
2023-02-04T20:02:16.581Z,104050.63
2023-02-04T20:05:03.256Z,104061.97
2023-02-04T20:07:49.177Z,104083.78
2023-02-04T20:10:35.428Z,104098.63
2023-02-04T20:13:22.690Z,104115.19
2023-02-04T20:16:20.019Z,104120.41
2023-02-04T20:19:13.507Z,104126.53
2023-02-04T20:22:13.384Z,104137.00
2023-02-04T20:25:00.453Z,104144.84
2023-02-04T20:27:46.635Z,104151.84
2023-02-04T20:30:32.848Z,104160.56
2023-02-04T20:33:26.408Z,104162.31
2023-02-04T20:36:27.138Z,104158.81
2023-02-04T20:39:18.424Z,104171.94
2023-02-04T20:42:17.510Z,104177.16
2023-02-04T20:45:13.815Z,104178.91
2023-02-04T20:48:01.197Z,104186.75
2023-02-04T20:50:48.968Z,104182.38
2023-02-04T20:53:38.126Z,104178.88
2023-02-04T20:56:25.416Z,104178.00
2023-02-04T20:59:19.264Z,104178.00
2023-02-04T21:02:05.522Z,104180.63
2023-02-04T21:04:53.876Z,104179.78
2023-02-04T21:07:41.226Z,104179.78
2023-02-04T21:10:27.067Z,104162.31
2023-02-04T21:13:13.268Z,104168.44
2023-02-04T21:15:59.466Z,104165.81
2023-02-04T21:18:47.346Z,104166.66
2023-02-04T21:21:33.375Z,104156.22
2023-02-04T21:24:20.592Z,104145.75
2023-02-04T21:27:06.248Z,104138.78
2023-02-04T21:29:52.075Z,104131.81
2023-02-04T21:32:37.886Z,104124.84
2023-02-04T21:35:24.512Z,104136.19
2023-02-04T21:38:10.463Z,104131.84
2023-02-04T21:40:57.402Z,104137.09
2023-02-04T21:43:43.229Z,104129.25
2023-02-04T21:46:29.275Z,104123.16
2023-02-04T21:49:16.777Z,104122.28
2023-02-04T21:52:02.871Z,104120.56
2023-02-04T21:54:48.763Z,104114.44
2023-02-04T21:57:36.016Z,104114.47
2023-02-04T22:00:23.756Z,104119.72
2023-02-04T22:03:15.585Z,104112.75
2023-02-04T22:06:01.598Z,104099.66
2023-02-04T22:08:47.768Z,104100.53
2023-02-04T22:11:33.576Z,104105.78
2023-02-04T22:14:38.683Z,104097.91
2023-02-04T22:17:24.818Z,104092.72
2023-02-04T22:20:11.562Z,104095.31
2023-02-04T22:22:57.465Z,104097.03
2023-02-04T22:25:43.153Z,104098.78
2023-02-04T22:28:29.000Z,104105.75
2023-02-04T22:31:16.269Z,104107.50
2023-02-04T22:34:02.362Z,104106.63
2023-02-04T22:36:48.239Z,104099.66
2023-02-04T22:39:34.107Z,104103.13
2023-02-04T22:42:19.959Z,104116.19
2023-02-04T22:45:06.018Z,104116.16
2023-02-04T22:47:53.401Z,104107.44
2023-02-04T22:50:39.115Z,104109.19
2023-02-04T22:53:24.908Z,104118.75
2023-02-04T22:56:10.703Z,104123.94
2023-02-04T22:58:56.603Z,104127.41
2023-02-04T23:01:42.505Z,104131.75
2023-02-04T23:04:29.600Z,104127.41
2023-02-04T23:07:15.395Z,104127.41
2023-02-04T23:10:01.110Z,104126.50
2023-02-04T23:12:46.875Z,104127.34
2023-02-04T23:15:32.943Z,104130.81
2023-02-04T23:18:19.264Z,104143.88
2023-02-04T23:21:06.573Z,104143.00
2023-02-04T23:23:52.498Z,104149.94
2023-02-04T23:26:38.178Z,104161.22
2023-02-04T23:29:23.916Z,104165.56
2023-02-04T23:32:09.839Z,104169.03
2023-02-04T23:34:55.484Z,104173.38
2023-02-04T23:37:42.700Z,104181.19
2023-02-04T23:40:28.363Z,104177.69
2023-02-04T23:43:14.302Z,104177.69
2023-02-04T23:46:00.341Z,104173.28
2023-02-04T23:48:46.399Z,104173.28
2023-02-04T23:51:32.082Z,104178.47
2023-02-04T23:54:19.284Z,104168.03
2023-02-04T23:57:05.637Z,104156.72
2023-02-04T23:59:51.512Z,104154.09
